sensor_id;sensor_type;location;lat;lon;timestamp;P1;P2;P0
33507;PMS7003;25568;37.410;-122.096;2023-10-19T00:00:57;0.75;0.75;0.00
33507;PMS7003;25568;37.410;-122.096;2023-10-19T00:03:25;1.00;0.00;0.00
33507;PMS7003;25568;37.410;-122.096;2023-10-19T00:05:55;0.00;0.00;0.00
33507;PMS7003;25568;37.410;-122.096;2023-10-19T00:08:23;0.00;0.00;0.00
33507;PMS7003;25568;37.410;-122.096;2023-10-19T00:11:03;0.00;0.00;0.00
33507;PMS7003;25568;37.410;-122.096;2023-10-19T00:13:34;0.00;0.00;0.00
33507;PMS7003;25568;37.410;-122.096;2023-10-19T00:16:03;0.00;0.00;0.00
33507;PMS7003;25568;37.410;-122.096;2023-10-19T00:18:37;0.00;0.00;0.00
33507;PMS7003;25568;37.410;-122.096;2023-10-19T00:21:08;0.00;0.00;0.00
33507;PMS7003;25568;37.410;-122.096;2023-10-19T00:23:45;0.25;0.00;0.00
33507;PMS7003;25568;37.410;-122.096;2023-10-19T00:26:16;0.00;0.00;0.00
33507;PMS7003;25568;37.410;-122.096;2023-10-19T00:28:46;0.00;0.00;0.00
33507;PMS7003;25568;37.410;-122.096;2023-10-19T00:31:18;0.00;0.00;0.00
33507;PMS7003;25568;37.410;-122.096;2023-10-19T00:33:47;0.00;0.00;0.00
33507;PMS7003;25568;37.410;-122.096;2023-10-19T00:36:17;0.00;0.00;0.00
33507;PMS7003;25568;37.410;-122.096;2023-10-19T00:38:48;0.00;0.00;0.00
33507;PMS7003;25568;37.410;-122.096;2023-10-19T00:41:21;0.25;0.00;0.00
33507;PMS7003;25568;37.410;-122.096;2023-10-19T00:43:54;0.00;0.00;0.00
33507;PMS7003;25568;37.410;-122.096;2023-10-19T00:46:28;0.00;0.00;0.00
33507;PMS7003;25568;37.410;-122.096;2023-10-19T00:49:03;0.00;0.00;0.00
33507;PMS7003;25568;37.410;-122.096;2023-10-19T00:51:34;0.00;0.00;0.00
33507;PMS7003;25568;37.410;-122.096;2023-10-19T00:54:20;0.00;0.00;0.00
33507;PMS7003;25568;37.410;-122.096;2023-10-19T00:56:59;0.00;0.00;0.00
33507;PMS7003;25568;37.410;-122.096;2023-10-19T00:59:36;0.00;0.00;0.00
33507;PMS7003;25568;37.410;-122.096;2023-10-19T01:02:08;0.00;0.00;0.00
33507;PMS7003;25568;37.410;-122.096;2023-10-19T01:04:55;0.00;0.00;0.00
33507;PMS7003;25568;37.410;-122.096;2023-10-19T01:07:26;0.00;0.00;0.00
33507;PMS7003;25568;37.410;-122.096;2023-10-19T01:09:58;0.00;0.00;0.00
33507;PMS7003;25568;37.410;-122.096;2023-10-19T01:12:31;0.00;0.00;0.00
33507;PMS7003;25568;37.410;-122.096;2023-10-19T01:15:05;0.00;0.00;0.00
33507;PMS7003;25568;37.410;-122.096;2023-10-19T01:17:38;0.00;0.00;0.00
33507;PMS7003;25568;37.410;-122.096;2023-10-19T01:20:09;0.00;0.00;0.00
33507;PMS7003;25568;37.410;-122.096;2023-10-19T01:22:53;0.00;0.00;0.00
33507;PMS7003;25568;37.410;-122.096;2023-10-19T01:25:43;0.00;0.00;0.00
33507;PMS7003;25568;37.410;-122.096;2023-10-19T01:31:09;0.75;0.75;0.75
33507;PMS7003;25568;37.410;-122.096;2023-10-19T01:33:42;1.75;1.75;1.75
33507;PMS7003;25568;37.410;-122.096;2023-10-19T01:36:11;5.00;4.00;4.00
33507;PMS7003;25568;37.410;-122.096;2023-10-19T01:38:53;8.75;8.00;7.00
33507;PMS7003;25568;37.410;-122.096;2023-10-19T01:41:26;2.00;2.00;1.00
33507;PMS7003;25568;37.410;-122.096;2023-10-19T01:43:56;6.00;5.25;5.25
33507;PMS7003;25568;37.410;-122.096;2023-10-19T01:46:30;8.25;7.50;7.00
33507;PMS7003;25568;37.410;-122.096;2023-10-19T01:48:59;9.00;9.00;8.00
33507;PMS7003;25568;37.410;-122.096;2023-10-19T01:51:30;15.50;14.50;12.75
33507;PMS7003;25568;37.410;-122.096;2023-10-19T01:54:00;17.25;14.50;12.50
33507;PMS7003;25568;37.410;-122.096;2023-10-19T01:56:30;22.67;22.00;18.00
33507;PMS7003;25568;37.410;-122.096;2023-10-19T01:59:01;26.33;26.33;21.00
33507;PMS7003;25568;37.410;-122.096;2023-10-19T02:01:31;30.33;26.67;22.00
33507;PMS7003;25568;37.410;-122.096;2023-10-19T02:03:59;29.50;28.50;22.00
33507;PMS7003;25568;37.410;-122.096;2023-10-19T02:06:29;34.25;31.00;22.00
33507;PMS7003;25568;37.410;-122.096;2023-10-19T02:09:03;28.67;26.67;20.33
33507;PMS7003;25568;37.410;-122.096;2023-10-19T02:11:47;28.33;27.00;21.33
33507;PMS7003;25568;37.410;-122.096;2023-10-19T02:14:19;22.33;21.00;17.67
33507;PMS7003;25568;37.410;-122.096;2023-10-19T02:16:47;24.00;23.00;18.33
33507;PMS7003;25568;37.410;-122.096;2023-10-19T02:19:18;24.00;23.00;20.00
33507;PMS7003;25568;37.410;-122.096;2023-10-19T02:21:47;19.00;18.00;16.00
33507;PMS7003;25568;37.410;-122.096;2023-10-19T02:24:19;22.33;22.33;17.67
33507;PMS7003;25568;37.410;-122.096;2023-10-19T02:26:48;16.00;15.75;15.25
33507;PMS7003;25568;37.410;-122.096;2023-10-19T02:29:18;22.67;21.00;15.67
33507;PMS7003;25568;37.410;-122.096;2023-10-19T02:31:47;18.50;16.50;15.50
33507;PMS7003;25568;37.410;-122.096;2023-10-19T02:34:18;20.75;20.00;16.00
33507;PMS7003;25568;37.410;-122.096;2023-10-19T02:36:46;20.25;19.50;15.25
33507;PMS7003;25568;37.410;-122.096;2023-10-19T02:39:15;16.75;16.00;14.00
33507;PMS7003;25568;37.410;-122.096;2023-10-19T02:41:45;20.75;19.00;16.25
33507;PMS7003;25568;37.410;-122.096;2023-10-19T02:44:15;20.33;19.00;14.33
33507;PMS7003;25568;37.410;-122.096;2023-10-19T02:46:48;18.50;17.25;15.00
33507;PMS7003;25568;37.410;-122.096;2023-10-19T02:49:24;16.25;15.75;13.50
33507;PMS7003;25568;37.410;-122.096;2023-10-19T02:51:52;16.00;14.75;13.75
33507;PMS7003;25568;37.410;-122.096;2023-10-19T02:54:28;16.00;14.67;14.00
33507;PMS7003;25568;37.410;-122.096;2023-10-19T02:57:00;18.75;17.50;12.25
33507;PMS7003;25568;37.410;-122.096;2023-10-19T02:59:32;11.75;10.00;9.25
33507;PMS7003;25568;37.410;-122.096;2023-10-19T03:02:00;17.75;14.50;12.00
33507;PMS7003;25568;37.410;-122.096;2023-10-19T03:04:33;14.25;13.25;9.50
33507;PMS7003;25568;37.410;-122.096;2023-10-19T03:07:01;13.75;12.75;10.50
33507;PMS7003;25568;37.410;-122.096;2023-10-19T03:09:31;14.25;14.25;12.25
33507;PMS7003;25568;37.410;-122.096;2023-10-19T03:12:03;13.50;12.75;11.00
33507;PMS7003;25568;37.410;-122.096;2023-10-19T03:14:36;13.75;12.50;10.75
33507;PMS7003;25568;37.410;-122.096;2023-10-19T03:17:03;13.50;12.25;11.00
33507;PMS7003;25568;37.410;-122.096;2023-10-19T03:19:34;16.75;13.00;10.75
33507;PMS7003;25568;37.410;-122.096;2023-10-19T03:22:02;15.00;15.00;13.00
33507;PMS7003;25568;37.410;-122.096;2023-10-19T03:24:31;15.25;14.50;11.25
33507;PMS7003;25568;37.410;-122.096;2023-10-19T03:27:04;10.75;10.00;9.50
33507;PMS7003;25568;37.410;-122.096;2023-10-19T03:29:38;12.75;12.75;11.00
33507;PMS7003;25568;37.410;-122.096;2023-10-19T03:32:11;13.25;12.25;11.25
33507;PMS7003;25568;37.410;-122.096;2023-10-19T03:34:40;13.00;13.00;10.75
33507;PMS7003;25568;37.410;-122.096;2023-10-19T03:37:13;11.50;10.75;9.75
33507;PMS7003;25568;37.410;-122.096;2023-10-19T03:39:44;13.25;11.00;9.00
33507;PMS7003;25568;37.410;-122.096;2023-10-19T03:42:15;10.25;9.00;8.50
33507;PMS7003;25568;37.410;-122.096;2023-10-19T03:44:46;11.75;11.00;9.50
33507;PMS7003;25568;37.410;-122.096;2023-10-19T03:47:19;9.33;7.33;6.33
33507;PMS7003;25568;37.410;-122.096;2023-10-19T03:49:51;12.50;10.00;8.00
33507;PMS7003;25568;37.410;-122.096;2023-10-19T03:52:20;9.00;9.00;8.00
33507;PMS7003;25568;37.410;-122.096;2023-10-19T03:54:52;10.75;9.50;8.25
33507;PMS7003;25568;37.410;-122.096;2023-10-19T03:57:24;10.00;10.00;9.00
33507;PMS7003;25568;37.410;-122.096;2023-10-19T03:59:55;10.75;10.50;9.25
33507;PMS7003;25568;37.410;-122.096;2023-10-19T04:02:24;12.25;10.50;8.00
33507;PMS7003;25568;37.410;-122.096;2023-10-19T04:04:54;9.25;8.00;7.25
33507;PMS7003;25568;37.410;-122.096;2023-10-19T04:07:24;3.00;3.00;3.00
33507;PMS7003;25568;37.410;-122.096;2023-10-19T04:09:56;9.50;9.50;8.50
33507;PMS7003;25568;37.410;-122.096;2023-10-19T04:12:36;9.50;9.25;7.75
33507;PMS7003;25568;37.410;-122.096;2023-10-19T04:15:08;8.50;8.00;7.00
33507;PMS7003;25568;37.410;-122.096;2023-10-19T04:17:41;9.00;8.25;7.25
33507;PMS7003;25568;37.410;-122.096;2023-10-19T04:20:11;8.25;8.25;7.00
33507;PMS7003;25568;37.410;-122.096;2023-10-19T04:22:55;8.00;8.00;7.25
33507;PMS7003;25568;37.410;-122.096;2023-10-19T04:25:32;10.75;9.00;7.25
33507;PMS7003;25568;37.410;-122.096;2023-10-19T04:28:02;8.50;7.75;7.00
33507;PMS7003;25568;37.410;-122.096;2023-10-19T04:30:32;7.75;7.00;6.50
33507;PMS7003;25568;37.410;-122.096;2023-10-19T04:33:02;7.00;7.00;6.00
33507;PMS7003;25568;37.410;-122.096;2023-10-19T04:35:35;5.25;4.75;4.25
33507;PMS7003;25568;37.410;-122.096;2023-10-19T04:38:06;7.25;7.25;6.50
33507;PMS7003;25568;37.410;-122.096;2023-10-19T04:40:35;8.00;7.75;7.00
33507;PMS7003;25568;37.410;-122.096;2023-10-19T04:43:06;7.25;7.00;6.00
33507;PMS7003;25568;37.410;-122.096;2023-10-19T04:45:37;6.00;6.00;6.00
33507;PMS7003;25568;37.410;-122.096;2023-10-19T04:48:07;6.75;6.75;6.00
33507;PMS7003;25568;37.410;-122.096;2023-10-19T04:50:36;7.25;7.25;7.25
33507;PMS7003;25568;37.410;-122.096;2023-10-19T04:53:05;8.50;8.25;7.25
33507;PMS7003;25568;37.410;-122.096;2023-10-19T04:55:34;7.75;6.50;5.50
33507;PMS7003;25568;37.410;-122.096;2023-10-19T04:58:03;10.00;8.00;7.00
33507;PMS7003;25568;37.410;-122.096;2023-10-19T05:00:36;11.75;9.00;7.50
33507;PMS7003;25568;37.410;-122.096;2023-10-19T05:03:05;4.00;4.00;3.00
33507;PMS7003;25568;37.410;-122.096;2023-10-19T05:05:34;4.00;4.00;4.00
33507;PMS7003;25568;37.410;-122.096;2023-10-19T05:08:04;5.50;4.25;4.00
33507;PMS7003;25568;37.410;-122.096;2023-10-19T05:10:33;4.50;4.00;4.00
33507;PMS7003;25568;37.410;-122.096;2023-10-19T05:13:02;4.00;3.75;3.75
33507;PMS7003;25568;37.410;-122.096;2023-10-19T05:15:33;3.00;2.75;2.75
33507;PMS7003;25568;37.410;-122.096;2023-10-19T05:18:02;3.00;3.00;2.75
33507;PMS7003;25568;37.410;-122.096;2023-10-19T05:20:32;4.25;4.25;3.00
33507;PMS7003;25568;37.410;-122.096;2023-10-19T05:23:05;3.00;2.25;2.00
33507;PMS7003;25568;37.410;-122.096;2023-10-19T05:25:34;2.25;1.75;1.75
33507;PMS7003;25568;37.410;-122.096;2023-10-19T05:28:04;2.50;2.50;2.50
33507;PMS7003;25568;37.410;-122.096;2023-10-19T05:30:35;1.75;1.75;1.75
33507;PMS7003;25568;37.410;-122.096;2023-10-19T05:33:04;2.00;1.00;1.00
33507;PMS7003;25568;37.410;-122.096;2023-10-19T05:35:34;2.75;2.25;2.25
33507;PMS7003;25568;37.410;-122.096;2023-10-19T05:38:06;2.75;2.75;2.00
33507;PMS7003;25568;37.410;-122.096;2023-10-19T05:40:37;0.00;0.00;0.00
33507;PMS7003;25568;37.410;-122.096;2023-10-19T05:43:08;2.00;1.00;1.00
33507;PMS7003;25568;37.410;-122.096;2023-10-19T05:45:39;3.50;2.25;2.25
33507;PMS7003;25568;37.410;-122.096;2023-10-19T05:48:08;1.25;1.25;1.25
33507;PMS7003;25568;37.410;-122.096;2023-10-19T05:50:37;2.50;2.00;2.00
33507;PMS7003;25568;37.410;-122.096;2023-10-19T05:53:08;1.67;1.67;1.00
33507;PMS7003;25568;37.410;-122.096;2023-10-19T05:55:37;2.50;1.00;1.00
33507;PMS7003;25568;37.410;-122.096;2023-10-19T05:58:05;0.75;0.75;0.75
33507;PMS7003;25568;37.410;-122.096;2023-10-19T06:00:34;1.50;1.50;1.25
33507;PMS7003;25568;37.410;-122.096;2023-10-19T06:03:05;1.75;0.75;0.75
33507;PMS7003;25568;37.410;-122.096;2023-10-19T06:05:35;1.25;1.00;1.00
33507;PMS7003;25568;37.410;-122.096;2023-10-19T06:08:04;0.25;0.25;0.25
33507;PMS7003;25568;37.410;-122.096;2023-10-19T06:10:35;1.00;1.00;1.00
33507;PMS7003;25568;37.410;-122.096;2023-10-19T06:13:04;1.00;1.00;1.00
33507;PMS7003;25568;37.410;-122.096;2023-10-19T06:15:35;1.00;1.00;1.00
33507;PMS7003;25568;37.410;-122.096;2023-10-19T06:18:06;1.25;1.00;1.00
33507;PMS7003;25568;37.410;-122.096;2023-10-19T06:20:36;1.00;1.00;1.00
33507;PMS7003;25568;37.410;-122.096;2023-10-19T06:23:10;1.00;1.00;0.75
33507;PMS7003;25568;37.410;-122.096;2023-10-19T06:25:39;2.50;2.00;1.25
33507;PMS7003;25568;37.410;-122.096;2023-10-19T06:28:09;1.75;1.75;1.75
33507;PMS7003;25568;37.410;-122.096;2023-10-19T06:30:38;3.00;2.00;2.00
33507;PMS7003;25568;37.410;-122.096;2023-10-19T06:33:10;2.00;1.00;1.00
33507;PMS7003;25568;37.410;-122.096;2023-10-19T06:35:38;1.00;1.00;1.00
33507;PMS7003;25568;37.410;-122.096;2023-10-19T06:38:07;1.00;1.00;1.00
33507;PMS7003;25568;37.410;-122.096;2023-10-19T06:40:36;1.00;1.00;1.00
33507;PMS7003;25568;37.410;-122.096;2023-10-19T06:43:05;1.25;1.25;1.00
33507;PMS7003;25568;37.410;-122.096;2023-10-19T06:45:34;2.50;1.00;1.00
33507;PMS7003;25568;37.410;-122.096;2023-10-19T06:48:03;1.00;1.00;1.00
33507;PMS7003;25568;37.410;-122.096;2023-10-19T06:50:35;1.50;1.50;0.75
33507;PMS7003;25568;37.410;-122.096;2023-10-19T06:53:05;1.00;1.00;1.00
33507;PMS7003;25568;37.410;-122.096;2023-10-19T06:55:35;1.00;1.00;1.00
33507;PMS7003;25568;37.410;-122.096;2023-10-19T06:58:04;1.00;1.00;1.00
33507;PMS7003;25568;37.410;-122.096;2023-10-19T07:00:35;1.00;1.00;1.00
33507;PMS7003;25568;37.410;-122.096;2023-10-19T07:03:08;1.00;1.00;1.00
33507;PMS7003;25568;37.410;-122.096;2023-10-19T07:05:38;0.00;0.00;0.00
33507;PMS7003;25568;37.410;-122.096;2023-10-19T07:08:07;1.00;1.00;1.00
33507;PMS7003;25568;37.410;-122.096;2023-10-19T07:10:36;1.00;1.00;1.00
33507;PMS7003;25568;37.410;-122.096;2023-10-19T07:13:05;1.25;0.75;0.75
33507;PMS7003;25568;37.410;-122.096;2023-10-19T07:15:34;1.00;1.00;1.00
33507;PMS7003;25568;37.410;-122.096;2023-10-19T07:18:07;0.75;0.75;0.75
33507;PMS7003;25568;37.410;-122.096;2023-10-19T07:20:38;0.00;0.00;0.00
33507;PMS7003;25568;37.410;-122.096;2023-10-19T07:23:08;1.00;1.00;1.00
33507;PMS7003;25568;37.410;-122.096;2023-10-19T07:25:45;1.00;1.00;1.00
33507;PMS7003;25568;37.410;-122.096;2023-10-19T07:28:19;0.00;0.00;0.00
33507;PMS7003;25568;37.410;-122.096;2023-10-19T07:30:50;1.00;1.00;1.00
33507;PMS7003;25568;37.410;-122.096;2023-10-19T07:33:38;1.00;1.00;1.00
33507;PMS7003;25568;37.410;-122.096;2023-10-19T07:36:13;1.00;0.00;0.00
33507;PMS7003;25568;37.410;-122.096;2023-10-19T07:38:44;0.75;0.75;0.50
33507;PMS7003;25568;37.410;-122.096;2023-10-19T07:41:13;0.00;0.00;0.00
33507;PMS7003;25568;37.410;-122.096;2023-10-19T07:43:42;0.00;0.00;0.00
33507;PMS7003;25568;37.410;-122.096;2023-10-19T07:46:11;1.00;1.00;1.00
33507;PMS7003;25568;37.410;-122.096;2023-10-19T07:48:39;0.75;0.00;0.00
33507;PMS7003;25568;37.410;-122.096;2023-10-19T07:51:08;0.00;0.00;0.00
33507;PMS7003;25568;37.410;-122.096;2023-10-19T07:53:39;1.00;0.75;0.50
33507;PMS7003;25568;37.410;-122.096;2023-10-19T07:56:08;0.00;0.00;0.00
33507;PMS7003;25568;37.410;-122.096;2023-10-19T07:58:37;1.00;1.00;1.00
33507;PMS7003;25568;37.410;-122.096;2023-10-19T08:01:07;0.25;0.25;0.25
33507;PMS7003;25568;37.410;-122.096;2023-10-19T08:03:37;1.00;1.00;1.00
33507;PMS7003;25568;37.410;-122.096;2023-10-19T08:06:06;0.75;0.75;0.75
33507;PMS7003;25568;37.410;-122.096;2023-10-19T08:08:35;1.00;1.00;0.75
33507;PMS7003;25568;37.410;-122.096;2023-10-19T08:11:06;1.00;1.00;1.00
33507;PMS7003;25568;37.410;-122.096;2023-10-19T08:13:35;0.00;0.00;0.00
33507;PMS7003;25568;37.410;-122.096;2023-10-19T08:16:05;1.00;1.00;0.00
33507;PMS7003;25568;37.410;-122.096;2023-10-19T08:18:34;0.25;0.00;0.00
33507;PMS7003;25568;37.410;-122.096;2023-10-19T08:21:04;0.75;0.75;0.75
33507;PMS7003;25568;37.410;-122.096;2023-10-19T08:23:33;0.00;0.00;0.00
33507;PMS7003;25568;37.410;-122.096;2023-10-19T08:26:03;0.75;0.75;0.75
33507;PMS7003;25568;37.410;-122.096;2023-10-19T08:28:34;1.00;0.25;0.25
33507;PMS7003;25568;37.410;-122.096;2023-10-19T08:31:03;0.25;0.25;0.00
33507;PMS7003;25568;37.410;-122.096;2023-10-19T08:33:35;1.00;1.00;1.00
33507;PMS7003;25568;37.410;-122.096;2023-10-19T08:36:07;0.00;0.00;0.00
33507;PMS7003;25568;37.410;-122.096;2023-10-19T08:38:45;0.00;0.00;0.00
33507;PMS7003;25568;37.410;-122.096;2023-10-19T08:41:16;0.00;0.00;0.00
33507;PMS7003;25568;37.410;-122.096;2023-10-19T08:43:45;0.00;0.00;0.00
33507;PMS7003;25568;37.410;-122.096;2023-10-19T08:46:15;1.00;0.00;0.00
33507;PMS7003;25568;37.410;-122.096;2023-10-19T08:48:45;1.00;1.00;0.75
33507;PMS7003;25568;37.410;-122.096;2023-10-19T08:51:14;0.50;0.50;0.50
33507;PMS7003;25568;37.410;-122.096;2023-10-19T08:53:43;1.00;1.00;1.00
33507;PMS7003;25568;37.410;-122.096;2023-10-19T08:56:12;1.00;1.00;1.00
33507;PMS7003;25568;37.410;-122.096;2023-10-19T08:58:44;0.25;0.25;0.25
33507;PMS7003;25568;37.410;-122.096;2023-10-19T09:01:13;0.00;0.00;0.00
33507;PMS7003;25568;37.410;-122.096;2023-10-19T09:03:43;0.50;0.50;0.50
33507;PMS7003;25568;37.410;-122.096;2023-10-19T09:06:12;0.00;0.00;0.00
33507;PMS7003;25568;37.410;-122.096;2023-10-19T09:08:41;0.75;0.00;0.00
33507;PMS7003;25568;37.410;-122.096;2023-10-19T09:11:13;0.00;0.00;0.00
33507;PMS7003;25568;37.410;-122.096;2023-10-19T09:13:46;0.25;0.25;0.25
33507;PMS7003;25568;37.410;-122.096;2023-10-19T09:16:16;0.00;0.00;0.00
33507;PMS7003;25568;37.410;-122.096;2023-10-19T09:18:46;1.00;0.75;0.50
33507;PMS7003;25568;37.410;-122.096;2023-10-19T09:21:15;1.00;1.00;1.00
33507;PMS7003;25568;37.410;-122.096;2023-10-19T09:23:54;0.25;0.25;0.25
33507;PMS7003;25568;37.410;-122.096;2023-10-19T09:26:25;1.00;0.00;0.00
33507;PMS7003;25568;37.410;-122.096;2023-10-19T09:28:54;0.50;0.50;0.50
33507;PMS7003;25568;37.410;-122.096;2023-10-19T09:31:23;0.75;0.50;0.50
33507;PMS7003;25568;37.410;-122.096;2023-10-19T09:33:52;0.25;0.25;0.25
33507;PMS7003;25568;37.410;-122.096;2023-10-19T09:36:22;1.00;1.00;1.00
33507;PMS7003;25568;37.410;-122.096;2023-10-19T09:38:55;1.25;0.75;0.75
33507;PMS7003;25568;37.410;-122.096;2023-10-19T09:41:26;1.00;1.00;1.00
33507;PMS7003;25568;37.410;-122.096;2023-10-19T09:43:57;0.00;0.00;0.00
33507;PMS7003;25568;37.410;-122.096;2023-10-19T09:46:32;0.25;0.25;0.25
33507;PMS7003;25568;37.410;-122.096;2023-10-19T09:49:04;0.25;0.25;0.00
33507;PMS7003;25568;37.410;-122.096;2023-10-19T09:51:37;1.00;1.00;1.00
33507;PMS7003;25568;37.410;-122.096;2023-10-19T09:54:10;1.00;0.00;0.00
33507;PMS7003;25568;37.410;-122.096;2023-10-19T09:56:47;3.00;0.00;0.00
33507;PMS7003;25568;37.410;-122.096;2023-10-19T09:59:27;1.00;1.00;0.75
33507;PMS7003;25568;37.410;-122.096;2023-10-19T10:02:04;0.00;0.00;0.00
33507;PMS7003;25568;37.410;-122.096;2023-10-19T10:04:38;0.00;0.00;0.00
33507;PMS7003;25568;37.410;-122.096;2023-10-19T10:07:08;0.00;0.00;0.00
33507;PMS7003;25568;37.410;-122.096;2023-10-19T10:09:38;0.00;0.00;0.00
33507;PMS7003;25568;37.410;-122.096;2023-10-19T10:12:17;0.00;0.00;0.00
33507;PMS7003;25568;37.410;-122.096;2023-10-19T10:14:58;0.25;0.25;0.25
33507;PMS7003;25568;37.410;-122.096;2023-10-19T10:17:28;0.00;0.00;0.00
33507;PMS7003;25568;37.410;-122.096;2023-10-19T10:25:50;0.50;0.50;0.50
33507;PMS7003;25568;37.410;-122.096;2023-10-19T10:28:20;0.00;0.00;0.00
33507;PMS7003;25568;37.410;-122.096;2023-10-19T10:31:09;0.00;0.00;0.00
33507;PMS7003;25568;37.410;-122.096;2023-10-19T10:33:43;1.00;1.00;0.00
33507;PMS7003;25568;37.410;-122.096;2023-10-19T10:36:13;0.00;0.00;0.00
33507;PMS7003;25568;37.410;-122.096;2023-10-19T10:38:44;0.00;0.00;0.00
33507;PMS7003;25568;37.410;-122.096;2023-10-19T10:41:19;1.00;0.00;0.00
33507;PMS7003;25568;37.410;-122.096;2023-10-19T10:43:53;1.00;1.00;1.00
33507;PMS7003;25568;37.410;-122.096;2023-10-19T10:46:23;0.00;0.00;0.00
33507;PMS7003;25568;37.410;-122.096;2023-10-19T10:48:52;0.00;0.00;0.00
33507;PMS7003;25568;37.410;-122.096;2023-10-19T10:51:22;0.00;0.00;0.00
33507;PMS7003;25568;37.410;-122.096;2023-10-19T10:53:53;0.00;0.00;0.00
33507;PMS7003;25568;37.410;-122.096;2023-10-19T10:56:22;0.00;0.00;0.00
33507;PMS7003;25568;37.410;-122.096;2023-10-19T10:58:53;1.00;0.50;0.50
33507;PMS7003;25568;37.410;-122.096;2023-10-19T11:01:28;1.00;1.00;1.00
33507;PMS7003;25568;37.410;-122.096;2023-10-19T11:04:08;0.50;0.50;0.50
33507;PMS7003;25568;37.410;-122.096;2023-10-19T11:06:50;0.00;0.00;0.00
33507;PMS7003;25568;37.410;-122.096;2023-10-19T11:09:21;0.00;0.00;0.00
33507;PMS7003;25568;37.410;-122.096;2023-10-19T11:11:50;1.00;1.00;1.00
33507;PMS7003;25568;37.410;-122.096;2023-10-19T11:14:21;0.00;0.00;0.00
33507;PMS7003;25568;37.410;-122.096;2023-10-19T11:16:51;0.00;0.00;0.00
33507;PMS7003;25568;37.410;-122.096;2023-10-19T11:19:19;0.00;0.00;0.00
33507;PMS7003;25568;37.410;-122.096;2023-10-19T11:21:53;0.00;0.00;0.00
33507;PMS7003;25568;37.410;-122.096;2023-10-19T11:24:26;0.00;0.00;0.00
33507;PMS7003;25568;37.410;-122.096;2023-10-19T11:26:59;0.00;0.00;0.00
33507;PMS7003;25568;37.410;-122.096;2023-10-19T11:29:29;0.00;0.00;0.00
33507;PMS7003;25568;37.410;-122.096;2023-10-19T11:31:59;1.50;1.00;1.00
33507;PMS7003;25568;37.410;-122.096;2023-10-19T11:34:28;0.00;0.00;0.00
33507;PMS7003;25568;37.410;-122.096;2023-10-19T11:37:00;0.00;0.00;0.00
33507;PMS7003;25568;37.410;-122.096;2023-10-19T11:39:30;0.25;0.25;0.25
33507;PMS7003;25568;37.410;-122.096;2023-10-19T11:41:59;0.00;0.00;0.00
33507;PMS7003;25568;37.410;-122.096;2023-10-19T11:44:29;0.00;0.00;0.00
33507;PMS7003;25568;37.410;-122.096;2023-10-19T11:46:58;0.50;0.00;0.00
33507;PMS7003;25568;37.410;-122.096;2023-10-19T11:49:27;0.00;0.00;0.00
33507;PMS7003;25568;37.410;-122.096;2023-10-19T11:51:56;0.00;0.00;0.00
33507;PMS7003;25568;37.410;-122.096;2023-10-19T11:54:25;0.00;0.00;0.00
33507;PMS7003;25568;37.410;-122.096;2023-10-19T11:56:54;0.00;0.00;0.00
33507;PMS7003;25568;37.410;-122.096;2023-10-19T11:59:23;0.00;0.00;0.00
33507;PMS7003;25568;37.410;-122.096;2023-10-19T12:01:54;0.00;0.00;0.00
33507;PMS7003;25568;37.410;-122.096;2023-10-19T12:04:24;0.25;0.00;0.00
33507;PMS7003;25568;37.410;-122.096;2023-10-19T12:06:53;0.00;0.00;0.00
33507;PMS7003;25568;37.410;-122.096;2023-10-19T12:09:22;0.00;0.00;0.00
33507;PMS7003;25568;37.410;-122.096;2023-10-19T12:11:51;0.00;0.00;0.00
33507;PMS7003;25568;37.410;-122.096;2023-10-19T12:14:21;1.00;0.00;0.00
33507;PMS7003;25568;37.410;-122.096;2023-10-19T12:16:50;0.00;0.00;0.00
33507;PMS7003;25568;37.410;-122.096;2023-10-19T12:19:20;0.00;0.00;0.00
33507;PMS7003;25568;37.410;-122.096;2023-10-19T12:22:04;0.00;0.00;0.00
33507;PMS7003;25568;37.410;-122.096;2023-10-19T12:24:34;0.00;0.00;0.00
33507;PMS7003;25568;37.410;-122.096;2023-10-19T12:27:03;0.25;0.25;0.00
33507;PMS7003;25568;37.410;-122.096;2023-10-19T12:29:33;0.00;0.00;0.00
33507;PMS7003;25568;37.410;-122.096;2023-10-19T12:32:02;0.00;0.00;0.00
33507;PMS7003;25568;37.410;-122.096;2023-10-19T12:34:33;0.25;0.00;0.00
33507;PMS7003;25568;37.410;-122.096;2023-10-19T12:37:02;0.00;0.00;0.00
33507;PMS7003;25568;37.410;-122.096;2023-10-19T12:39:32;1.75;1.00;1.00
33507;PMS7003;25568;37.410;-122.096;2023-10-19T12:42:08;0.00;0.00;0.00
33507;PMS7003;25568;37.410;-122.096;2023-10-19T12:44:37;0.50;0.50;0.50
33507;PMS7003;25568;37.410;-122.096;2023-10-19T12:47:09;0.25;0.25;0.00
33507;PMS7003;25568;37.410;-122.096;2023-10-19T12:49:42;0.00;0.00;0.00
33507;PMS7003;25568;37.410;-122.096;2023-10-19T12:52:12;0.00;0.00;0.00
33507;PMS7003;25568;37.410;-122.096;2023-10-19T12:54:41;0.00;0.00;0.00
33507;PMS7003;25568;37.410;-122.096;2023-10-19T12:57:13;0.00;0.00;0.00
33507;PMS7003;25568;37.410;-122.096;2023-10-19T12:59:42;1.50;0.75;0.00
33507;PMS7003;25568;37.410;-122.096;2023-10-19T13:02:11;0.00;0.00;0.00
33507;PMS7003;25568;37.410;-122.096;2023-10-19T13:04:42;0.00;0.00;0.00
33507;PMS7003;25568;37.410;-122.096;2023-10-19T13:07:12;0.25;0.00;0.00
33507;PMS7003;25568;37.410;-122.096;2023-10-19T13:09:40;1.00;0.00;0.00
33507;PMS7003;25568;37.410;-122.096;2023-10-19T13:12:09;0.00;0.00;0.00
33507;PMS7003;25568;37.410;-122.096;2023-10-19T13:14:38;0.00;0.00;0.00
33507;PMS7003;25568;37.410;-122.096;2023-10-19T13:17:10;0.75;0.75;0.00
33507;PMS7003;25568;37.410;-122.096;2023-10-19T13:19:39;0.00;0.00;0.00
33507;PMS7003;25568;37.410;-122.096;2023-10-19T13:22:11;1.00;0.00;0.00
33507;PMS7003;25568;37.410;-122.096;2023-10-19T13:24:40;0.75;0.00;0.00
33507;PMS7003;25568;37.410;-122.096;2023-10-19T13:27:09;0.00;0.00;0.00
33507;PMS7003;25568;37.410;-122.096;2023-10-19T13:29:38;0.00;0.00;0.00
33507;PMS7003;25568;37.410;-122.096;2023-10-19T13:32:07;0.00;0.00;0.00
33507;PMS7003;25568;37.410;-122.096;2023-10-19T13:34:36;1.00;0.00;0.00
33507;PMS7003;25568;37.410;-122.096;2023-10-19T13:37:07;0.75;0.00;0.00
33507;PMS7003;25568;37.410;-122.096;2023-10-19T13:39:36;0.00;0.00;0.00
33507;PMS7003;25568;37.410;-122.096;2023-10-19T13:42:06;0.50;0.50;0.00
33507;PMS7003;25568;37.410;-122.096;2023-10-19T13:44:35;1.00;0.00;0.00
33507;PMS7003;25568;37.410;-122.096;2023-10-19T13:47:05;0.00;0.00;0.00
33507;PMS7003;25568;37.410;-122.096;2023-10-19T13:49:34;0.00;0.00;0.00
33507;PMS7003;25568;37.410;-122.096;2023-10-19T13:52:03;1.00;1.00;1.00
33507;PMS7003;25568;37.410;-122.096;2023-10-19T13:54:36;0.00;0.00;0.00
33507;PMS7003;25568;37.410;-122.096;2023-10-19T13:57:05;1.00;0.00;0.00
33507;PMS7003;25568;37.410;-122.096;2023-10-19T13:59:35;0.00;0.00;0.00
33507;PMS7003;25568;37.410;-122.096;2023-10-19T14:02:04;0.00;0.00;0.00
33507;PMS7003;25568;37.410;-122.096;2023-10-19T14:04:33;0.00;0.00;0.00
33507;PMS7003;25568;37.410;-122.096;2023-10-19T14:07:02;0.50;0.50;0.00
33507;PMS7003;25568;37.410;-122.096;2023-10-19T14:09:32;1.25;0.75;0.75
33507;PMS7003;25568;37.410;-122.096;2023-10-19T14:12:03;0.00;0.00;0.00